sensor_id;sensor_type;location;lat;lon;timestamp;P1;durP1;ratioP1;P2;durP2;ratioP2
8331;SDS011;4203;48.144;14.118;2023-07-20T00:00:18;5.00;;;4.50;;
8331;SDS011;4203;48.144;14.118;2023-07-20T00:02:49;5.50;;;4.15;;
8331;SDS011;4203;48.144;14.118;2023-07-20T00:05:17;10.30;;;5.07;;
8331;SDS011;4203;48.144;14.118;2023-07-20T00:07:46;6.90;;;4.30;;
8331;SDS011;4203;48.144;14.118;2023-07-20T00:10:17;5.97;;;4.70;;
8331;SDS011;4203;48.144;14.118;2023-07-20T00:12:46;5.20;;;4.78;;
8331;SDS011;4203;48.144;14.118;2023-07-20T00:15:14;5.57;;;4.68;;
8331;SDS011;4203;48.144;14.118;2023-07-20T00:17:41;4.78;;;4.38;;
8331;SDS011;4203;48.144;14.118;2023-07-20T00:20:10;5.20;;;4.70;;
8331;SDS011;4203;48.144;14.118;2023-07-20T00:22:38;6.43;;;5.15;;
8331;SDS011;4203;48.144;14.118;2023-07-20T00:25:05;6.03;;;5.28;;
8331;SDS011;4203;48.144;14.118;2023-07-20T00:27:33;5.15;;;4.70;;
8331;SDS011;4203;48.144;14.118;2023-07-20T00:30:02;6.10;;;5.05;;
8331;SDS011;4203;48.144;14.118;2023-07-20T00:32:30;5.90;;;4.93;;
8331;SDS011;4203;48.144;14.118;2023-07-20T00:34:57;5.63;;;4.45;;
8331;SDS011;4203;48.144;14.118;2023-07-20T00:37:24;5.65;;;4.70;;
8331;SDS011;4203;48.144;14.118;2023-07-20T00:39:53;4.80;;;4.40;;
8331;SDS011;4203;48.144;14.118;2023-07-20T00:42:20;4.88;;;4.38;;
8331;SDS011;4203;48.144;14.118;2023-07-20T00:44:47;5.15;;;4.20;;
8331;SDS011;4203;48.144;14.118;2023-07-20T00:47:16;4.72;;;4.03;;
8331;SDS011;4203;48.144;14.118;2023-07-20T00:49:44;5.15;;;4.65;;
8331;SDS011;4203;48.144;14.118;2023-07-20T00:52:12;4.65;;;4.30;;
8331;SDS011;4203;48.144;14.118;2023-07-20T00:54:41;4.35;;;3.95;;
8331;SDS011;4203;48.144;14.118;2023-07-20T00:57:09;4.63;;;4.00;;
8331;SDS011;4203;48.144;14.118;2023-07-20T00:59:36;4.95;;;3.72;;
8331;SDS011;4203;48.144;14.118;2023-07-20T01:02:03;4.13;;;3.70;;
8331;SDS011;4203;48.144;14.118;2023-07-20T01:04:32;6.43;;;4.03;;
8331;SDS011;4203;48.144;14.118;2023-07-20T01:07:03;4.93;;;4.53;;
8331;SDS011;4203;48.144;14.118;2023-07-20T01:09:39;4.50;;;4.07;;
8331;SDS011;4203;48.144;14.118;2023-07-20T01:12:12;4.30;;;3.97;;
8331;SDS011;4203;48.144;14.118;2023-07-20T01:14:45;3.80;;;3.50;;
8331;SDS011;4203;48.144;14.118;2023-07-20T01:17:12;3.65;;;3.35;;
8331;SDS011;4203;48.144;14.118;2023-07-20T01:19:41;4.45;;;3.85;;
8331;SDS011;4203;48.144;14.118;2023-07-20T01:22:09;5.80;;;4.28;;
8331;SDS011;4203;48.144;14.118;2023-07-20T01:25:03;4.35;;;3.95;;
8331;SDS011;4203;48.144;14.118;2023-07-20T01:27:50;5.97;;;3.75;;
8331;SDS011;4203;48.144;14.118;2023-07-20T01:30:43;4.25;;;3.95;;
8331;SDS011;4203;48.144;14.118;2023-07-20T01:33:19;4.28;;;3.95;;
8331;SDS011;4203;48.144;14.118;2023-07-20T01:35:50;5.20;;;4.72;;
8331;SDS011;4203;48.144;14.118;2023-07-20T01:38:19;5.40;;;3.80;;
8331;SDS011;4203;48.144;14.118;2023-07-20T01:40:47;5.75;;;4.18;;
8331;SDS011;4203;48.144;14.118;2023-07-20T01:43:15;4.18;;;3.63;;
8331;SDS011;4203;48.144;14.118;2023-07-20T01:45:43;5.15;;;4.10;;
8331;SDS011;4203;48.144;14.118;2023-07-20T01:48:10;4.88;;;3.78;;
8331;SDS011;4203;48.144;14.118;2023-07-20T01:50:39;4.40;;;4.00;;
8331;SDS011;4203;48.144;14.118;2023-07-20T01:53:06;6.65;;;3.92;;
8331;SDS011;4203;48.144;14.118;2023-07-20T01:55:33;4.70;;;4.15;;
8331;SDS011;4203;48.144;14.118;2023-07-20T01:58:01;4.35;;;3.95;;
8331;SDS011;4203;48.144;14.118;2023-07-20T02:00:28;4.55;;;4.13;;
8331;SDS011;4203;48.144;14.118;2023-07-20T02:02:56;4.07;;;3.78;;
8331;SDS011;4203;48.144;14.118;2023-07-20T02:05:24;4.53;;;4.13;;
8331;SDS011;4203;48.144;14.118;2023-07-20T02:07:53;4.68;;;4.30;;
8331;SDS011;4203;48.144;14.118;2023-07-20T02:10:20;4.85;;;3.95;;
8331;SDS011;4203;48.144;14.118;2023-07-20T02:12:48;4.78;;;4.28;;
8331;SDS011;4203;48.144;14.118;2023-07-20T02:15:15;4.70;;;4.30;;
8331;SDS011;4203;48.144;14.118;2023-07-20T02:17:44;4.72;;;4.05;;
8331;SDS011;4203;48.144;14.118;2023-07-20T02:20:11;4.65;;;4.25;;
8331;SDS011;4203;48.144;14.118;2023-07-20T02:22:38;6.68;;;4.50;;
8331;SDS011;4203;48.144;14.118;2023-07-20T02:25:08;5.38;;;4.72;;
8331;SDS011;4203;48.144;14.118;2023-07-20T02:27:36;4.72;;;4.32;;
8331;SDS011;4203;48.144;14.118;2023-07-20T02:30:05;4.72;;;4.32;;
8331;SDS011;4203;48.144;14.118;2023-07-20T02:32:34;5.72;;;4.38;;
8331;SDS011;4203;48.144;14.118;2023-07-20T02:35:02;5.80;;;4.55;;
8331;SDS011;4203;48.144;14.118;2023-07-20T02:37:29;5.32;;;4.60;;
8331;SDS011;4203;48.144;14.118;2023-07-20T02:39:57;4.47;;;4.00;;
8331;SDS011;4203;48.144;14.118;2023-07-20T02:42:27;5.97;;;4.90;;
8331;SDS011;4203;48.144;14.118;2023-07-20T02:44:55;4.57;;;4.18;;
8331;SDS011;4203;48.144;14.118;2023-07-20T02:47:22;6.43;;;4.50;;
8331;SDS011;4203;48.144;14.118;2023-07-20T02:49:49;5.32;;;4.78;;
8331;SDS011;4203;48.144;14.118;2023-07-20T02:52:17;5.68;;;4.90;;
8331;SDS011;4203;48.144;14.118;2023-07-20T02:54:45;5.60;;;4.95;;
8331;SDS011;4203;48.144;14.118;2023-07-20T02:57:12;4.95;;;4.50;;
8331;SDS011;4203;48.144;14.118;2023-07-20T02:59:41;4.68;;;4.25;;
8331;SDS011;4203;48.144;14.118;2023-07-20T03:02:08;6.32;;;4.45;;
8331;SDS011;4203;48.144;14.118;2023-07-20T03:04:36;6.72;;;4.75;;
8331;SDS011;4203;48.144;14.118;2023-07-20T03:07:04;6.10;;;4.65;;
8331;SDS011;4203;48.144;14.118;2023-07-20T03:09:32;7.82;;;5.00;;
8331;SDS011;4203;48.144;14.118;2023-07-20T03:11:59;4.95;;;4.50;;
8331;SDS011;4203;48.144;14.118;2023-07-20T03:14:27;5.55;;;4.63;;
8331;SDS011;4203;48.144;14.118;2023-07-20T03:16:56;4.43;;;4.03;;
8331;SDS011;4203;48.144;14.118;2023-07-20T03:19:23;4.88;;;4.38;;
8331;SDS011;4203;48.144;14.118;2023-07-20T03:21:50;5.53;;;4.63;;
8331;SDS011;4203;48.144;14.118;2023-07-20T03:24:17;4.90;;;4.38;;
8331;SDS011;4203;48.144;14.118;2023-07-20T03:26:45;5.22;;;4.68;;
8331;SDS011;4203;48.144;14.118;2023-07-20T03:29:12;5.40;;;4.90;;
8331;SDS011;4203;48.144;14.118;2023-07-20T03:31:41;4.60;;;4.22;;
8331;SDS011;4203;48.144;14.118;2023-07-20T03:34:10;5.30;;;4.50;;
8331;SDS011;4203;48.144;14.118;2023-07-20T03:36:37;5.35;;;4.35;;
8331;SDS011;4203;48.144;14.118;2023-07-20T03:39:04;4.70;;;4.35;;
8331;SDS011;4203;48.144;14.118;2023-07-20T03:41:32;5.38;;;4.95;;
8331;SDS011;4203;48.144;14.118;2023-07-20T03:44:01;6.53;;;4.95;;
8331;SDS011;4203;48.144;14.118;2023-07-20T03:46:28;5.45;;;4.95;;
8331;SDS011;4203;48.144;14.118;2023-07-20T03:48:56;6.30;;;4.82;;
8331;SDS011;4203;48.144;14.118;2023-07-20T03:51:25;6.50;;;4.50;;
8331;SDS011;4203;48.144;14.118;2023-07-20T03:53:53;5.45;;;4.80;;
8331;SDS011;4203;48.144;14.118;2023-07-20T03:56:20;4.88;;;4.38;;
8331;SDS011;4203;48.144;14.118;2023-07-20T03:58:48;5.07;;;4.45;;
8331;SDS011;4203;48.144;14.118;2023-07-20T04:01:15;8.68;;;5.55;;
8331;SDS011;4203;48.144;14.118;2023-07-20T04:03:43;8.40;;;5.30;;
8331;SDS011;4203;48.144;14.118;2023-07-20T04:06:10;10.55;;;5.50;;
8331;SDS011;4203;48.144;14.118;2023-07-20T04:08:40;11.73;;;5.30;;
8331;SDS011;4203;48.144;14.118;2023-07-20T04:11:08;7.20;;;5.28;;
8331;SDS011;4203;48.144;14.118;2023-07-20T04:13:35;5.88;;;5.32;;
8331;SDS011;4203;48.144;14.118;2023-07-20T04:16:02;7.05;;;4.88;;
8331;SDS011;4203;48.144;14.118;2023-07-20T04:18:30;5.10;;;4.57;;
8331;SDS011;4203;48.144;14.118;2023-07-20T04:20:57;5.90;;;4.68;;
8331;SDS011;4203;48.144;14.118;2023-07-20T04:23:25;6.13;;;4.78;;
8331;SDS011;4203;48.144;14.118;2023-07-20T04:25:54;5.10;;;4.63;;
8331;SDS011;4203;48.144;14.118;2023-07-20T04:28:22;5.35;;;4.82;;
8331;SDS011;4203;48.144;14.118;2023-07-20T04:30:49;8.43;;;4.40;;
8331;SDS011;4203;48.144;14.118;2023-07-20T04:33:17;5.13;;;4.60;;
8331;SDS011;4203;48.144;14.118;2023-07-20T04:35:45;5.32;;;4.82;;
8331;SDS011;4203;48.144;14.118;2023-07-20T04:38:15;8.25;;;4.60;;
8331;SDS011;4203;48.144;14.118;2023-07-20T04:40:44;8.07;;;4.65;;
8331;SDS011;4203;48.144;14.118;2023-07-20T04:43:13;8.93;;;4.72;;
8331;SDS011;4203;48.144;14.118;2023-07-20T04:45:41;6.85;;;4.72;;
8331;SDS011;4203;48.144;14.118;2023-07-20T04:48:09;4.40;;;4.00;;
8331;SDS011;4203;48.144;14.118;2023-07-20T04:50:37;5.35;;;4.65;;
8331;SDS011;4203;48.144;14.118;2023-07-20T04:53:06;5.13;;;4.60;;
8331;SDS011;4203;48.144;14.118;2023-07-20T04:55:35;4.32;;;4.03;;
8331;SDS011;4203;48.144;14.118;2023-07-20T04:58:02;4.38;;;3.97;;
8331;SDS011;4203;48.144;14.118;2023-07-20T05:00:31;4.63;;;4.22;;
8331;SDS011;4203;48.144;14.118;2023-07-20T05:02:59;4.70;;;4.30;;
8331;SDS011;4203;48.144;14.118;2023-07-20T05:05:27;5.00;;;3.95;;
8331;SDS011;4203;48.144;14.118;2023-07-20T05:07:54;4.63;;;4.22;;
8331;SDS011;4203;48.144;14.118;2023-07-20T05:10:21;4.13;;;3.72;;
8331;SDS011;4203;48.144;14.118;2023-07-20T05:12:49;4.80;;;4.28;;
8331;SDS011;4203;48.144;14.118;2023-07-20T05:15:17;5.95;;;4.22;;
8331;SDS011;4203;48.144;14.118;2023-07-20T05:17:45;6.68;;;4.78;;
8331;SDS011;4203;48.144;14.118;2023-07-20T05:20:14;4.88;;;4.43;;
8331;SDS011;4203;48.144;14.118;2023-07-20T05:22:41;5.55;;;3.90;;
8331;SDS011;4203;48.144;14.118;2023-07-20T05:25:09;4.57;;;4.18;;
8331;SDS011;4203;48.144;14.118;2023-07-20T05:27:37;5.90;;;4.30;;
8331;SDS011;4203;48.144;14.118;2023-07-20T05:30:06;5.85;;;4.30;;
8331;SDS011;4203;48.144;14.118;2023-07-20T05:32:34;3.67;;;3.45;;
8331;SDS011;4203;48.144;14.118;2023-07-20T05:35:03;3.90;;;3.60;;
8331;SDS011;4203;48.144;14.118;2023-07-20T05:37:31;5.45;;;3.88;;
8331;SDS011;4203;48.144;14.118;2023-07-20T05:39:58;5.55;;;3.90;;
8331;SDS011;4203;48.144;14.118;2023-07-20T05:42:26;4.57;;;3.72;;
8331;SDS011;4203;48.144;14.118;2023-07-20T05:44:53;7.10;;;3.60;;
8331;SDS011;4203;48.144;14.118;2023-07-20T05:47:20;3.42;;;3.13;;
8331;SDS011;4203;48.144;14.118;2023-07-20T05:49:48;3.35;;;3.15;;
8331;SDS011;4203;48.144;14.118;2023-07-20T05:52:17;4.32;;;3.13;;
8331;SDS011;4203;48.144;14.118;2023-07-20T05:54:44;4.25;;;3.85;;
8331;SDS011;4203;48.144;14.118;2023-07-20T05:57:11;3.55;;;3.25;;
8331;SDS011;4203;48.144;14.118;2023-07-20T05:59:38;3.92;;;3.58;;
8331;SDS011;4203;48.144;14.118;2023-07-20T06:02:09;4.80;;;3.50;;
8331;SDS011;4203;48.144;14.118;2023-07-20T06:04:38;7.47;;;3.70;;
8331;SDS011;4203;48.144;14.118;2023-07-20T06:07:06;3.75;;;3.30;;
8331;SDS011;4203;48.144;14.118;2023-07-20T06:09:35;3.90;;;3.45;;
8331;SDS011;4203;48.144;14.118;2023-07-20T06:12:02;4.22;;;3.55;;
8331;SDS011;4203;48.144;14.118;2023-07-20T06:14:30;4.75;;;3.72;;
8331;SDS011;4203;48.144;14.118;2023-07-20T06:16:58;4.05;;;3.55;;
8331;SDS011;4203;48.144;14.118;2023-07-20T06:19:25;5.57;;;3.63;;
8331;SDS011;4203;48.144;14.118;2023-07-20T06:21:52;7.50;;;4.22;;
8331;SDS011;4203;48.144;14.118;2023-07-20T06:24:20;4.70;;;3.58;;
8331;SDS011;4203;48.144;14.118;2023-07-20T06:26:48;5.72;;;3.40;;
8331;SDS011;4203;48.144;14.118;2023-07-20T06:29:15;3.95;;;3.53;;
8331;SDS011;4203;48.144;14.118;2023-07-20T06:31:43;3.35;;;3.05;;
8331;SDS011;4203;48.144;14.118;2023-07-20T06:34:10;6.30;;;3.88;;
8331;SDS011;4203;48.144;14.118;2023-07-20T06:36:37;5.25;;;3.78;;
8331;SDS011;4203;48.144;14.118;2023-07-20T06:39:05;4.53;;;3.53;;
8331;SDS011;4203;48.144;14.118;2023-07-20T06:41:32;4.82;;;3.53;;
8331;SDS011;4203;48.144;14.118;2023-07-20T06:44:01;5.20;;;3.45;;
8331;SDS011;4203;48.144;14.118;2023-07-20T06:46:30;3.20;;;2.90;;
8331;SDS011;4203;48.144;14.118;2023-07-20T06:48:57;4.28;;;3.90;;
8331;SDS011;4203;48.144;14.118;2023-07-20T06:51:24;3.80;;;3.50;;
8331;SDS011;4203;48.144;14.118;2023-07-20T06:53:52;4.20;;;3.65;;
8331;SDS011;4203;48.144;14.118;2023-07-20T06:56:19;4.00;;;3.45;;
8331;SDS011;4203;48.144;14.118;2023-07-20T06:58:46;3.63;;;3.30;;
8331;SDS011;4203;48.144;14.118;2023-07-20T07:01:16;3.83;;;3.42;;
8331;SDS011;4203;48.144;14.118;2023-07-20T07:03:43;4.07;;;3.58;;
8331;SDS011;4203;48.144;14.118;2023-07-20T07:06:10;4.38;;;3.53;;
8331;SDS011;4203;48.144;14.118;2023-07-20T07:08:37;4.57;;;3.08;;
8331;SDS011;4203;48.144;14.118;2023-07-20T07:11:05;3.97;;;3.50;;
8331;SDS011;4203;48.144;14.118;2023-07-20T07:13:32;5.15;;;3.55;;
8331;SDS011;4203;48.144;14.118;2023-07-20T07:15:59;5.78;;;3.50;;
8331;SDS011;4203;48.144;14.118;2023-07-20T07:18:28;3.88;;;3.58;;
8331;SDS011;4203;48.144;14.118;2023-07-20T07:20:56;5.15;;;3.40;;
8331;SDS011;4203;48.144;14.118;2023-07-20T07:23:23;4.28;;;3.40;;
8331;SDS011;4203;48.144;14.118;2023-07-20T07:25:50;3.22;;;3.03;;
8331;SDS011;4203;48.144;14.118;2023-07-20T07:28:18;3.53;;;3.17;;
8331;SDS011;4203;48.144;14.118;2023-07-20T07:30:45;3.53;;;3.22;;
8331;SDS011;4203;48.144;14.118;2023-07-20T07:33:12;3.13;;;2.80;;
8331;SDS011;4203;48.144;14.118;2023-07-20T07:35:41;4.22;;;3.03;;
8331;SDS011;4203;48.144;14.118;2023-07-20T07:38:08;4.03;;;3.63;;
8331;SDS011;4203;48.144;14.118;2023-07-20T07:40:36;5.00;;;3.17;;
8331;SDS011;4203;48.144;14.118;2023-07-20T07:43:03;6.55;;;3.58;;
8331;SDS011;4203;48.144;14.118;2023-07-20T07:45:33;3.28;;;2.97;;
8331;SDS011;4203;48.144;14.118;2023-07-20T07:48:01;3.30;;;3.10;;
8331;SDS011;4203;48.144;14.118;2023-07-20T07:50:29;3.35;;;3.05;;
8331;SDS011;4203;48.144;14.118;2023-07-20T07:52:58;3.60;;;3.10;;
8331;SDS011;4203;48.144;14.118;2023-07-20T07:55:26;3.83;;;3.30;;
8331;SDS011;4203;48.144;14.118;2023-07-20T07:57:54;3.13;;;2.83;;
8331;SDS011;4203;48.144;14.118;2023-07-20T08:00:22;3.47;;;3.10;;
8331;SDS011;4203;48.144;14.118;2023-07-20T08:02:49;3.10;;;2.88;;
8331;SDS011;4203;48.144;14.118;2023-07-20T08:05:17;6.35;;;3.22;;
8331;SDS011;4203;48.144;14.118;2023-07-20T08:07:45;3.35;;;3.05;;
8331;SDS011;4203;48.144;14.118;2023-07-20T08:10:13;4.55;;;3.17;;
8331;SDS011;4203;48.144;14.118;2023-07-20T08:12:41;6.53;;;2.88;;
8331;SDS011;4203;48.144;14.118;2023-07-20T08:15:10;4.55;;;2.65;;
8331;SDS011;4203;48.144;14.118;2023-07-20T08:17:37;2.95;;;2.75;;
8331;SDS011;4203;48.144;14.118;2023-07-20T08:20:05;6.45;;;3.00;;
8331;SDS011;4203;48.144;14.118;2023-07-20T08:22:35;2.67;;;2.47;;
8331;SDS011;4203;48.144;14.118;2023-07-20T08:25:02;3.20;;;2.47;;
8331;SDS011;4203;48.144;14.118;2023-07-20T08:27:32;4.68;;;2.25;;
8331;SDS011;4203;48.144;14.118;2023-07-20T08:29:59;4.30;;;2.63;;
8331;SDS011;4203;48.144;14.118;2023-07-20T08:32:27;3.45;;;2.40;;
8331;SDS011;4203;48.144;14.118;2023-07-20T08:34:54;2.45;;;2.25;;
8331;SDS011;4203;48.144;14.118;2023-07-20T08:37:22;3.55;;;2.60;;
8331;SDS011;4203;48.144;14.118;2023-07-20T08:39:49;2.40;;;2.20;;
8331;SDS011;4203;48.144;14.118;2023-07-20T08:42:16;2.88;;;2.58;;
8331;SDS011;4203;48.144;14.118;2023-07-20T08:44:45;2.83;;;2.22;;
8331;SDS011;4203;48.144;14.118;2023-07-20T08:47:16;3.25;;;2.47;;
8331;SDS011;4203;48.144;14.118;2023-07-20T08:49:44;3.80;;;2.40;;
8331;SDS011;4203;48.144;14.118;2023-07-20T08:52:15;2.63;;;2.42;;
8331;SDS011;4203;48.144;14.118;2023-07-20T08:54:42;2.92;;;2.58;;
8331;SDS011;4203;48.144;14.118;2023-07-20T08:57:10;3.15;;;2.40;;
8331;SDS011;4203;48.144;14.118;2023-07-20T08:59:40;4.15;;;2.35;;
8331;SDS011;4203;48.144;14.118;2023-07-20T09:02:09;2.65;;;2.45;;
8331;SDS011;4203;48.144;14.118;2023-07-20T09:04:43;2.83;;;2.20;;
8331;SDS011;4203;48.144;14.118;2023-07-20T09:07:11;4.00;;;2.58;;
8331;SDS011;4203;48.144;14.118;2023-07-20T09:09:40;3.47;;;2.35;;
8331;SDS011;4203;48.144;14.118;2023-07-20T09:12:12;4.28;;;2.03;;
8331;SDS011;4203;48.144;14.118;2023-07-20T09:14:42;2.40;;;2.20;;
8331;SDS011;4203;48.144;14.118;2023-07-20T09:17:14;4.35;;;2.00;;
8331;SDS011;4203;48.144;14.118;2023-07-20T09:19:45;4.82;;;2.30;;
8331;SDS011;4203;48.144;14.118;2023-07-20T09:22:13;2.28;;;2.05;;
8331;SDS011;4203;48.144;14.118;2023-07-20T09:24:42;6.15;;;2.00;;
8331;SDS011;4203;48.144;14.118;2023-07-20T09:27:10;1.92;;;1.83;;
8331;SDS011;4203;48.144;14.118;2023-07-20T09:29:46;2.95;;;1.98;;
8331;SDS011;4203;48.144;14.118;2023-07-20T09:32:20;3.10;;;1.90;;
8331;SDS011;4203;48.144;14.118;2023-07-20T09:34:49;2.28;;;2.08;;
8331;SDS011;4203;48.144;14.118;2023-07-20T09:37:19;2.25;;;1.90;;
8331;SDS011;4203;48.144;14.118;2023-07-20T09:39:48;1.85;;;1.75;;
8331;SDS011;4203;48.144;14.118;2023-07-20T09:42:17;2.15;;;2.00;;
8331;SDS011;4203;48.144;14.118;2023-07-20T09:44:45;6.25;;;2.13;;
8331;SDS011;4203;48.144;14.118;2023-07-20T09:47:13;1.83;;;1.73;;
8331;SDS011;4203;48.144;14.118;2023-07-20T09:49:50;2.58;;;2.05;;
8331;SDS011;4203;48.144;14.118;2023-07-20T09:52:25;3.92;;;1.90;;
8331;SDS011;4203;48.144;14.118;2023-07-20T09:54:52;2.53;;;2.13;;
8331;SDS011;4203;48.144;14.118;2023-07-20T09:57:21;3.72;;;2.10;;
8331;SDS011;4203;48.144;14.118;2023-07-20T09:59:51;2.50;;;2.30;;
8331;SDS011;4203;48.144;14.118;2023-07-20T10:02:19;3.17;;;2.15;;
8331;SDS011;4203;48.144;14.118;2023-07-20T10:04:52;1.77;;;1.58;;
8331;SDS011;4203;48.144;14.118;2023-07-20T10:07:21;1.95;;;1.85;;
8331;SDS011;4203;48.144;14.118;2023-07-20T10:09:51;2.08;;;1.98;;
8331;SDS011;4203;48.144;14.118;2023-07-20T10:12:22;2.53;;;2.10;;
8331;SDS011;4203;48.144;14.118;2023-07-20T10:14:52;5.13;;;2.13;;
8331;SDS011;4203;48.144;14.118;2023-07-20T10:17:23;2.80;;;2.47;;
8331;SDS011;4203;48.144;14.118;2023-07-20T10:19:54;3.22;;;2.00;;
8331;SDS011;4203;48.144;14.118;2023-07-20T10:22:25;2.97;;;1.73;;
8331;SDS011;4203;48.144;14.118;2023-07-20T10:24:53;3.88;;;1.98;;
8331;SDS011;4203;48.144;14.118;2023-07-20T10:27:23;3.55;;;1.80;;
8331;SDS011;4203;48.144;14.118;2023-07-20T10:29:52;1.90;;;1.80;;
8331;SDS011;4203;48.144;14.118;2023-07-20T10:32:21;2.83;;;1.52;;
8331;SDS011;4203;48.144;14.118;2023-07-20T10:34:54;2.55;;;1.88;;
8331;SDS011;4203;48.144;14.118;2023-07-20T10:40:24;2.55;;;2.17;;
8331;SDS011;4203;48.144;14.118;2023-07-20T10:42:58;3.17;;;2.00;;
8331;SDS011;4203;48.144;14.118;2023-07-20T10:48:16;2.80;;;1.75;;
8331;SDS011;4203;48.144;14.118;2023-07-20T10:51:08;2.20;;;2.10;;
8331;SDS011;4203;48.144;14.118;2023-07-20T10:53:40;1.95;;;1.83;;
8331;SDS011;4203;48.144;14.118;2023-07-20T10:56:08;3.85;;;1.80;;
8331;SDS011;4203;48.144;14.118;2023-07-20T10:58:39;3.35;;;1.70;;
8331;SDS011;4203;48.144;14.118;2023-07-20T11:01:07;1.50;;;1.50;;
8331;SDS011;4203;48.144;14.118;2023-07-20T11:03:36;1.55;;;1.38;;
8331;SDS011;4203;48.144;14.118;2023-07-20T11:09:11;2.25;;;1.70;;
8331;SDS011;4203;48.144;14.118;2023-07-20T11:11:40;3.22;;;1.73;;
8331;SDS011;4203;48.144;14.118;2023-07-20T11:14:09;1.80;;;1.52;;
8331;SDS011;4203;48.144;14.118;2023-07-20T11:16:39;1.63;;;1.52;;
8331;SDS011;4203;48.144;14.118;2023-07-20T11:19:15;1.63;;;1.52;;
8331;SDS011;4203;48.144;14.118;2023-07-20T11:21:44;1.60;;;1.50;;
8331;SDS011;4203;48.144;14.118;2023-07-20T11:24:13;1.60;;;1.50;;
8331;SDS011;4203;48.144;14.118;2023-07-20T11:26:42;1.90;;;1.60;;
8331;SDS011;4203;48.144;14.118;2023-07-20T11:29:09;2.10;;;1.88;;
8331;SDS011;4203;48.144;14.118;2023-07-20T11:31:37;5.47;;;2.03;;
8331;SDS011;4203;48.144;14.118;2023-07-20T11:34:05;1.90;;;1.80;;
8331;SDS011;4203;48.144;14.118;2023-07-20T11:36:34;1.88;;;1.77;;
8331;SDS011;4203;48.144;14.118;2023-07-20T11:39:01;2.33;;;1.50;;
8331;SDS011;4203;48.144;14.118;2023-07-20T11:41:31;1.77;;;1.67;;
8331;SDS011;4203;48.144;14.118;2023-07-20T11:43:59;3.58;;;1.80;;
8331;SDS011;4203;48.144;14.118;2023-07-20T11:46:27;1.95;;;1.50;;
8331;SDS011;4203;48.144;14.118;2023-07-20T11:48:56;3.08;;;2.00;;
8331;SDS011;4203;48.144;14.118;2023-07-20T11:51:26;3.25;;;1.77;;
8331;SDS011;4203;48.144;14.118;2023-07-20T11:53:54;2.20;;;2.00;;
8331;SDS011;4203;48.144;14.118;2023-07-20T11:56:23;3.40;;;1.73;;
8331;SDS011;4203;48.144;14.118;2023-07-20T11:58:55;2.95;;;1.77;;
8331;SDS011;4203;48.144;14.118;2023-07-20T12:01:25;1.85;;;1.75;;
8331;SDS011;4203;48.144;14.118;2023-07-20T12:03:54;1.73;;;1.63;;
8331;SDS011;4203;48.144;14.118;2023-07-20T12:06:23;2.67;;;1.50;;
8331;SDS011;4203;48.144;14.118;2023-07-20T12:08:53;1.50;;;1.40;;
8331;SDS011;4203;48.144;14.118;2023-07-20T12:11:34;1.75;;;1.65;;
8331;SDS011;4203;48.144;14.118;2023-07-20T12:14:06;2.88;;;1.80;;
8331;SDS011;4203;48.144;14.118;2023-07-20T12:16:34;1.83;;;1.73;;
8331;SDS011;4203;48.144;14.118;2023-07-20T12:19:05;1.48;;;1.40;;
8331;SDS011;4203;48.144;14.118;2023-07-20T12:21:33;1.70;;;1.60;;
8331;SDS011;4203;48.144;14.118;2023-07-20T12:24:03;1.90;;;1.65;;
8331;SDS011;4203;48.144;14.118;2023-07-20T12:26:31;4.20;;;1.98;;
8331;SDS011;4203;48.144;14.118;2023-07-20T12:28:59;5.00;;;1.83;;
8331;SDS011;4203;48.144;14.118;2023-07-20T12:31:30;4.00;;;1.63;;
8331;SDS011;4203;48.144;14.118;2023-07-20T12:34:00;1.70;;;1.60;;
8331;SDS011;4203;48.144;14.118;2023-07-20T12:36:28;2.03;;;1.55;;
8331;SDS011;4203;48.144;14.118;2023-07-20T12:38:56;1.85;;;1.73;;
8331;SDS011;4203;48.144;14.118;2023-07-20T12:41:23;1.85;;;1.75;;
8331;SDS011;4203;48.144;14.118;2023-07-20T12:43:51;2.20;;;1.90;;
8331;SDS011;4203;48.144;14.118;2023-07-20T12:46:18;1.73;;;1.63;;
8331;SDS011;4203;48.144;14.118;2023-07-20T12:48:47;1.95;;;1.73;;
8331;SDS011;4203;48.144;14.118;2023-07-20T12:51:14;2.90;;;1.75;;
8331;SDS011;4203;48.144;14.118;2023-07-20T12:53:42;4.43;;;1.73;;
8331;SDS011;4203;48.144;14.118;2023-07-20T12:56:10;1.75;;;1.65;;
8331;SDS011;4203;48.144;14.118;2023-07-20T12:58:38;1.42;;;1.40;;
8331;SDS011;4203;48.144;14.118;2023-07-20T13:01:05;4.05;;;2.17;;
8331;SDS011;4203;48.144;14.118;2023-07-20T13:03:32;2.38;;;1.83;;
8331;SDS011;4203;48.144;14.118;2023-07-20T13:06:01;1.60;;;1.50;;
8331;SDS011;4203;48.144;14.118;2023-07-20T13:08:29;5.22;;;1.70;;
8331;SDS011;4203;48.144;14.118;2023-07-20T13:10:56;1.70;;;1.60;;
8331;SDS011;4203;48.144;14.118;2023-07-20T13:13:23;4.82;;;1.77;;
8331;SDS011;4203;48.144;14.118;2023-07-20T13:15:51;1.80;;;1.70;;
8331;SDS011;4203;48.144;14.118;2023-07-20T13:18:19;4.20;;;1.75;;
8331;SDS011;4203;48.144;14.118;2023-07-20T13:20:46;1.77;;;1.67;;
8331;SDS011;4203;48.144;14.118;2023-07-20T13:23:15;3.63;;;2.20;;
8331;SDS011;4203;48.144;14.118;2023-07-20T13:25:42;2.05;;;1.48;;
8331;SDS011;4203;48.144;14.118;2023-07-20T13:28:10;2.00;;;1.55;;
8331;SDS011;4203;48.144;14.118;2023-07-20T13:30:37;2.47;;;1.98;;
8331;SDS011;4203;48.144;14.118;2023-07-20T13:33:05;1.70;;;1.60;;
8331;SDS011;4203;48.144;14.118;2023-07-20T13:35:32;2.10;;;2.00;;
8331;SDS011;4203;48.144;14.118;2023-07-20T13:38:00;2.47;;;1.60;;
8331;SDS011;4203;48.144;14.118;2023-07-20T13:40:29;2.75;;;1.90;;
8331;SDS011;4203;48.144;14.118;2023-07-20T13:42:56;1.70;;;1.60;;
8331;SDS011;4203;48.144;14.118;2023-07-20T13:45:24;3.05;;;1.90;;
8331;SDS011;4203;48.144;14.118;2023-07-20T13:47:51;2.72;;;2.13;;
8331;SDS011;4203;48.144;14.118;2023-07-20T13:50:18;2.35;;;1.85;;
8331;SDS011;4203;48.144;14.118;2023-07-20T13:52:46;1.77;;;1.73;;
8331;SDS011;4203;48.144;14.118;2023-07-20T13:55:14;2.67;;;1.80;;
8331;SDS011;4203;48.144;14.118;2023-07-20T13:57:42;6.95;;;2.40;;
8331;SDS011;4203;48.144;14.118;2023-07-20T14:00:10;2.92;;;1.85;;
8331;SDS011;4203;48.144;14.118;2023-07-20T14:02:38;2.10;;;2.00;;
8331;SDS011;4203;48.144;14.118;2023-07-20T14:05:06;1.60;;;1.50;;
8331;SDS011;4203;48.144;14.118;2023-07-20T14:07:34;1.83;;;1.73;;
8331;SDS011;4203;48.144;14.118;2023-07-20T14:10:02;2.10;;;1.70;;
8331;SDS011;4203;48.144;14.118;2023-07-20T14:12:30;1.80;;;1.70;;
8331;SDS011;4203;48.144;14.118;2023-07-20T14:14:59;3.28;;;1.75;;
8331;SDS011;4203;48.144;14.118;2023-07-20T14:17:26;3.05;;;2.08;;
8331;SDS011;4203;48.144;14.118;2023-07-20T14:19:53;1.90;;;1.80;;
8331;SDS011;4203;48.144;14.118;2023-07-20T14:22:21;1.92;;;1.77;;
8331;SDS011;4203;48.144;14.118;2023-07-20T14:24:48;1.75;;;1.65;;
8331;SDS011;4203;48.144;14.118;2023-07-20T14:27:15;3.70;;;1.90;;
8331;SDS011;4203;48.144;14.118;2023-07-20T14:29:43;1.63;;;1.48;;
8331;SDS011;4203;48.144;14.118;2023-07-20T14:32:12;1.77;;;1.58;;
8331;SDS011;4203;48.144;14.118;2023-07-20T14:34:39;1.52;;;1.42;;
8331;SDS011;4203;48.144;14.118;2023-07-20T14:37:06;1.70;;;1.60;;
8331;SDS011;4203;48.144;14.118;2023-07-20T14:39:34;2.17;;;1.80;;
8331;SDS011;4203;48.144;14.118;2023-07-20T14:42:01;1.60;;;1.50;;
8331;SDS011;4203;48.144;14.118;2023-07-20T14:44:29;2.65;;;1.75;;
8331;SDS011;4203;48.144;14.118;2023-07-20T14:46:57;1.63;;;1.50;;
8331;SDS011;4203;48.144;14.118;2023-07-20T14:49:26;4.28;;;1.83;;
8331;SDS011;4203;48.144;14.118;2023-07-20T14:51:54;1.50;;;1.40;;
8331;SDS011;4203;48.144;14.118;2023-07-20T14:54:21;3.60;;;1.65;;
8331;SDS011;4203;48.144;14.118;2023-07-20T14:56:48;1.58;;;1.48;;
8331;SDS011;4203;48.144;14.118;2023-07-20T14:59:17;1.83;;;1.58;;
8331;SDS011;4203;48.144;14.118;2023-07-20T15:01:45;2.03;;;1.90;;
8331;SDS011;4203;48.144;14.118;2023-07-20T15:04:13;2.15;;;1.67;;
8331;SDS011;4203;48.144;14.118;2023-07-20T15:06:42;3.60;;;1.50;;
8331;SDS011;4203;48.144;14.118;2023-07-20T15:09:09;1.65;;;1.55;;
8331;SDS011;4203;48.144;14.118;2023-07-20T15:11:36;4.68;;;1.70;;
8331;SDS011;4203;48.144;14.118;2023-07-20T15:14:04;1.75;;;1.60;;
8331;SDS011;4203;48.144;14.118;2023-07-20T15:16:32;1.25;;;1.17;;